Time;durP1;ratioP1;P1;durP2;ratioP2;P2;SDS_P1;SDS_P2;PMS_P1;PMS_P2;Temp;Humidity;BMP_temperature;BMP_pressure;BME280_temperature;BME280_humidity;BME280_pressure;Samples;Min_cycle;Max_cycle;Signal;HPM_P1;HPM_P2
2023/03/08 00:01:08;;;;;;;12.00;6.05;;;8.70;41.00;;;;;;2310228;55;21473;-72
2023/03/08 00:03:34;;;;;;;12.90;6.18;;;8.70;41.10;;;;;;2550804;54;21017;-69
2023/03/08 00:06:04;;;;;;;11.55;5.60;;;8.60;41.10;;;;;;2313743;54;21312;-70
2023/03/08 00:08:30;;;;;;;10.57;6.30;;;8.60;41.10;;;;;;2551698;54;21478;-75
2023/03/08 00:10:56;;;;;;;11.65;6.43;;;8.60;41.20;;;;;;2475164;54;20929;-70
2023/03/08 00:13:23;;;;;;;12.00;6.97;;;8.60;41.30;;;;;;2350612;54;20932;-72
2023/03/08 00:15:49;;;;;;;12.37;6.30;;;8.50;41.30;;;;;;2311495;56;20986;-69
2023/03/08 00:18:16;;;;;;;12.32;6.20;;;8.50;41.30;;;;;;2311571;55;20905;-73
2023/03/08 00:20:42;;;;;;;11.00;5.70;;;8.50;41.30;;;;;;2551105;54;21506;-70
2023/03/08 00:23:08;;;;;;;9.55;5.35;;;8.50;41.40;;;;;;2310913;56;21410;-73
2023/03/08 00:25:34;;;;;;;8.60;5.00;;;8.50;41.40;;;;;;2311583;55;20946;-70
2023/03/08 00:28:01;;;;;;;9.43;4.93;;;8.50;41.40;;;;;;2395812;54;21301;-68
2023/03/08 00:30:27;;;;;;;9.82;4.97;;;8.50;41.50;;;;;;2311800;55;21499;-70
2023/03/08 00:32:53;;;;;;;9.70;5.32;;;8.50;41.50;;;;;;2310729;55;20937;-69
2023/03/08 00:35:20;;;;;;;10.25;5.43;;;8.50;41.50;;;;;;2545894;54;20993;-69
2023/03/08 00:37:46;;;;;;;7.97;4.87;;;8.50;41.50;;;;;;2311338;56;20997;-69
2023/03/08 00:40:13;;;;;;;9.55;5.30;;;8.50;41.50;;;;;;2534865;54;20947;-73
2023/03/08 00:42:39;;;;;;;10.52;5.32;;;8.50;41.60;;;;;;2309859;56;20961;-71
2023/03/08 00:45:06;;;;;;;8.50;4.70;;;8.50;41.60;;;;;;2310893;55;22043;-75
2023/03/08 00:47:34;;;;;;;10.75;5.20;;;8.50;41.60;;;;;;2311574;55;20938;-72
2023/03/08 00:50:00;;;;;;;10.98;4.85;;;8.50;41.60;;;;;;2310846;55;21017;-70
2023/03/08 00:52:28;;;;;;;9.27;5.00;;;8.50;41.60;;;;;;2311908;55;20949;-70
2023/03/08 00:54:54;;;;;;;11.60;5.65;;;8.50;41.60;;;;;;2311376;55;21561;-69
2023/03/08 00:57:20;;;;;;;11.30;5.07;;;8.50;41.60;;;;;;2288358;55;20985;-67
2023/03/08 00:59:46;;;;;;;9.10;4.93;;;8.50;41.60;;;;;;2311225;56;20981;-73
2023/03/08 01:02:13;;;;;;;9.07;4.53;;;8.50;41.60;;;;;;2311212;56;21382;-71
2023/03/08 01:04:39;;;;;;;9.32;4.75;;;8.50;41.60;;;;;;2327342;54;20910;-75
2023/03/08 01:07:05;;;;;;;10.13;5.62;;;8.50;41.60;;;;;;2310861;56;21380;-74
2023/03/08 01:09:31;;;;;;;10.45;5.53;;;8.50;41.60;;;;;;2551456;54;21021;-71
2023/03/08 01:11:58;;;;;;;9.65;5.10;;;8.50;41.60;;;;;;2444863;54;20937;-72
2023/03/08 01:14:24;;;;;;;9.77;5.55;;;8.50;41.60;;;;;;2551750;54;20966;-73
2023/03/08 01:16:50;;;;;;;8.57;4.80;;;8.40;41.60;;;;;;2311164;56;20977;-73
2023/03/08 01:19:16;;;;;;;8.68;4.55;;;8.40;42.00;;;;;;2313373;55;20941;-71
2023/03/08 01:21:43;;;;;;;9.82;5.00;;;8.40;41.70;;;;;;2305613;55;20959;-72
2023/03/08 01:24:09;;;;;;;10.75;4.87;;;8.40;41.70;;;;;;2294564;55;21312;-72
2023/03/08 01:26:35;;;;;;;11.40;5.40;;;8.40;41.80;;;;;;2306343;55;21067;-72
2023/03/08 01:29:02;;;;;;;9.77;5.03;;;8.40;41.80;;;;;;2292732;55;21204;-73
2023/03/08 01:31:28;;;;;;;9.05;5.15;;;8.40;41.80;;;;;;2551522;54;20927;-70
2023/03/08 01:33:55;;;;;;;10.20;4.57;;;8.40;41.80;;;;;;2288455;55;20946;-70
2023/03/08 01:36:22;;;;;;;9.63;5.05;;;8.30;41.80;;;;;;2547088;54;20925;-68
2023/03/08 01:38:49;;;;;;;9.20;4.78;;;8.30;41.80;;;;;;2310793;55;20941;-70
2023/03/08 01:41:26;;;;;;;10.07;4.55;;;8.30;41.80;;;;;;2310619;56;20925;-71
2023/03/08 01:43:52;;;;;;;7.65;4.53;;;8.30;41.90;;;;;;2384866;54;20965;-71
2023/03/08 01:46:29;;;;;;;8.35;4.70;;;8.30;41.90;;;;;;2384024;54;20950;-74
2023/03/08 01:49:15;;;;;;;9.45;4.55;;;8.30;42.00;;;;;;2310472;55;20929;-72
2023/03/08 01:52:05;;;;;;;8.65;4.75;;;8.30;42.00;;;;;;2311634;55;20933;-72
2023/03/08 01:54:45;;;;;;;9.50;5.07;;;8.30;42.00;;;;;;2391889;54;21053;-70
2023/03/08 01:57:45;;;;;;;10.65;4.72;;;8.20;42.00;;;;;;2544738;54;20921;-72
2023/03/08 02:00:22;;;;;;;9.32;4.57;;;8.30;42.20;;;;;;2314092;55;20937;-70
2023/03/08 02:03:00;;;;;;;7.82;4.25;;;8.30;42.10;;;;;;2476549;54;20949;-71
2023/03/08 02:05:26;;;;;;;10.60;4.57;;;8.30;42.10;;;;;;2311997;55;20993;-67
2023/03/08 02:07:53;;;;;;;8.45;4.47;;;8.20;42.10;;;;;;2527309;54;21403;-75
2023/03/08 02:10:19;;;;;;;9.68;5.05;;;8.20;42.10;;;;;;2311537;56;21005;-72
2023/03/08 02:12:45;;;;;;;10.15;4.87;;;8.20;42.10;;;;;;2311175;55;20937;-71
2023/03/08 02:15:13;;;;;;;8.60;4.45;;;8.20;42.20;;;;;;2311096;55;21014;-72
2023/03/08 02:17:40;;;;;;;10.02;5.00;;;8.20;42.20;;;;;;2311413;56;21422;-70
2023/03/08 02:20:23;;;;;;;9.35;4.97;;;8.20;42.20;;;;;;2311265;55;20901;-70
2023/03/08 02:22:52;;;;;;;9.45;4.68;;;8.20;42.30;;;;;;2309596;55;21474;-70
2023/03/08 02:25:27;;;;;;;9.95;4.68;;;8.20;42.20;;;;;;2551147;54;20905;-73
2023/03/08 02:27:53;;;;;;;9.07;4.75;;;8.20;42.30;;;;;;2311316;55;21258;-73
2023/03/08 02:30:24;;;;;;;9.75;4.75;;;8.20;42.20;;;;;;2311663;56;20945;-71
2023/03/08 02:32:50;;;;;;;6.87;3.75;;;8.30;42.40;;;;;;2310763;55;21438;-73
2023/03/08 02:35:17;;;;;;;9.50;4.50;;;8.30;42.30;;;;;;2389694;54;21548;-70
2023/03/08 02:37:43;;;;;;;9.70;4.80;;;8.30;42.40;;;;;;2310447;55;21044;-72
2023/03/08 02:40:10;;;;;;;8.18;4.35;;;8.30;42.40;;;;;;2402506;54;21494;-71
2023/03/08 02:42:36;;;;;;;7.80;4.00;;;8.30;42.40;;;;;;2310248;55;20984;-70
2023/03/08 02:45:03;;;;;;;6.95;3.70;;;8.30;42.40;;;;;;2309382;55;21304;-70
2023/03/08 02:47:29;;;;;;;8.25;4.12;;;8.30;42.30;;;;;;2310185;56;21916;-72
2023/03/08 02:49:56;;;;;;;7.82;4.20;;;8.30;42.30;;;;;;2308691;56;20945;-73
2023/03/08 02:52:22;;;;;;;7.30;4.00;;;8.30;42.30;;;;;;2310457;55;20958;-69
2023/03/08 02:54:48;;;;;;;9.38;4.55;;;8.30;42.30;;;;;;2310058;56;21061;-70
2023/03/08 02:57:15;;;;;;;8.20;4.05;;;8.30;42.20;;;;;;2309885;55;21355;-75
2023/03/08 02:59:41;;;;;;;10.45;4.35;;;8.30;42.20;;;;;;2309680;56;20937;-70
2023/03/08 03:02:07;;;;;;;8.38;4.00;;;8.30;42.10;;;;;;2309771;56;20989;-71
2023/03/08 03:04:33;;;;;;;9.07;4.82;;;8.30;42.10;;;;;;2310087;56;21442;-70
2023/03/08 03:07:00;;;;;;;10.18;5.05;;;8.30;42.20;;;;;;2309700;55;20941;-70
2023/03/08 03:09:26;;;;;;;10.63;4.85;;;8.30;42.10;;;;;;2376537;54;20934;-70
2023/03/08 03:11:52;;;;;;;10.68;5.00;;;8.30;42.10;;;;;;2310000;56;21431;-67
2023/03/08 03:14:19;;;;;;;8.13;4.20;;;8.20;42.10;;;;;;2310390;55;20969;-72
2023/03/08 03:16:45;;;;;;;9.45;4.25;;;8.30;42.20;;;;;;2392898;54;21403;-74
2023/03/08 03:19:11;;;;;;;8.95;5.18;;;8.20;42.10;;;;;;2309928;56;21380;-71
2023/03/08 03:21:38;;;;;;;9.05;4.50;;;8.20;42.10;;;;;;2310679;56;21069;-70
2023/03/08 03:24:04;;;;;;;7.97;4.25;;;8.20;42.20;;;;;;2309579;56;21557;-75
2023/03/08 03:26:31;;;;;;;9.18;4.53;;;8.20;42.20;;;;;;2370001;54;20934;-70
2023/03/08 03:28:57;;;;;;;10.10;4.72;;;8.20;42.30;;;;;;2524366;54;20988;-72
2023/03/08 03:31:23;;;;;;;10.98;5.12;;;8.20;42.30;;;;;;2431757;54;21049;-74
2023/03/08 03:33:50;;;;;;;10.18;5.20;;;8.10;42.30;;;;;;2390900;54;21330;-74
2023/03/08 03:36:18;;;;;;;9.27;4.60;;;8.20;42.40;;;;;;2391802;54;21005;-70
2023/03/08 03:38:44;;;;;;;11.15;5.40;;;8.20;42.50;;;;;;2311534;56;21091;-71
2023/03/08 03:41:12;;;;;;;9.13;4.87;;;8.20;42.50;;;;;;2359747;54;20913;-72
2023/03/08 03:43:38;;;;;;;8.93;4.53;;;8.30;42.70;;;;;;2495243;54;21568;-70
2023/03/08 03:46:09;;;;;;;11.57;5.20;;;8.30;42.70;;;;;;2310717;56;21181;-70
2023/03/08 03:48:36;;;;;;;10.27;4.85;;;8.30;42.70;;;;;;2311838;56;20910;-72
2023/03/08 03:51:04;;;;;;;12.82;5.65;;;8.30;42.80;;;;;;2548794;54;21620;-74
2023/03/08 03:53:30;;;;;;;8.77;4.75;;;8.30;42.90;;;;;;2291590;55;21006;-71
2023/03/08 03:56:16;;;;;;;10.38;5.03;;;8.40;43.00;;;;;;2307573;55;20918;-75
2023/03/08 03:58:43;;;;;;;11.68;5.75;;;8.40;43.10;;;;;;2289647;55;20945;-70
2023/03/08 04:01:11;;;;;;;12.37;5.45;;;8.40;43.00;;;;;;2311727;55;21001;-70
2023/03/08 04:03:37;;;;;;;8.57;5.12;;;8.50;43.10;;;;;;2311813;56;21037;-71
2023/03/08 04:06:17;;;;;;;11.68;5.53;;;8.50;43.10;;;;;;2311136;56;21433;-69
2023/03/08 04:08:44;;;;;;;10.38;5.85;;;8.50;43.10;;;;;;2551566;54;20953;-71
2023/03/08 04:11:11;;;;;;;11.55;6.07;;;8.60;43.70;;;;;;2551264;54;20977;-73
2023/03/08 04:13:38;;;;;;;10.93;5.93;;;8.60;43.20;;;;;;2311663;56;20965;-69
2023/03/08 04:16:21;;;;;;;13.48;7.07;;;8.60;43.20;;;;;;2310810;56;21394;-71
2023/03/08 04:18:47;;;;;;;11.55;6.25;;;8.70;43.40;;;;;;2551052;54;20929;-70
2023/03/08 04:21:14;;;;;;;15.52;6.85;;;8.70;43.30;;;;;;2311589;56;20913;-72
2023/03/08 04:23:40;;;;;;;14.02;6.53;;;8.70;43.30;;;;;;2311829;55;20914;-73
2023/03/08 04:26:06;;;;;;;12.60;6.20;;;8.80;43.40;;;;;;2319031;54;20949;-71
2023/03/08 04:28:33;;;;;;;10.70;5.97;;;8.80;43.30;;;;;;2550872;54;20965;-67
2023/03/08 04:30:59;;;;;;;12.07;6.55;;;8.80;43.30;;;;;;2310232;56;20933;-71
2023/03/08 04:33:26;;;;;;;13.80;7.05;;;8.80;43.30;;;;;;2311645;55;21681;-72
2023/03/08 04:35:52;;;;;;;11.45;6.18;;;8.80;43.30;;;;;;2311312;55;21209;-72
2023/03/08 04:38:18;;;;;;;10.80;5.78;;;8.90;43.40;;;;;;2311302;55;20981;-73
2023/03/08 04:43:35;;;;;;;10.52;6.00;;;9.00;43.40;;;;;;2377535;54;20933;-73
2023/03/08 04:46:01;;;;;;;11.65;6.18;;;8.90;43.30;;;;;;2542814;54;21449;-74
2023/03/08 04:48:28;;;;;;;11.73;5.97;;;9.00;43.40;;;;;;2508398;54;21001;-70
2023/03/08 04:50:54;;;;;;;10.35;5.65;;;9.00;43.30;;;;;;2551073;54;21465;-75
2023/03/08 04:53:21;;;;;;;10.68;5.60;;;9.00;43.30;;;;;;2551597;54;20917;-69
2023/03/08 04:55:47;;;;;;;10.07;5.70;;;9.10;43.40;;;;;;2311311;55;20929;-73
2023/03/08 04:58:13;;;;;;;10.30;5.65;;;9.10;43.40;;;;;;2311250;55;20973;-71
2023/03/08 05:00:40;;;;;;;8.88;5.55;;;9.10;43.40;;;;;;2311496;56;21021;-70
2023/03/08 05:03:06;;;;;;;11.00;5.93;;;9.10;43.70;;;;;;2310560;56;21486;-75
2023/03/08 05:05:32;;;;;;;11.07;6.45;;;9.10;43.40;;;;;;2311784;55;20965;-73
2023/03/08 05:08:02;;;;;;;13.30;7.10;;;9.20;43.50;;;;;;2384169;54;20921;-72
2023/03/08 05:10:28;;;;;;;14.35;6.25;;;9.20;43.50;;;;;;2448493;54;21005;-73
2023/03/08 05:12:54;;;;;;;11.77;5.60;;;9.20;43.40;;;;;;2311561;56;20993;-69
2023/03/08 05:15:24;;;;;;;9.80;5.32;;;9.20;43.40;;;;;;2311892;56;21025;-74
2023/03/08 05:17:51;;;;;;;10.88;5.35;;;9.20;43.40;;;;;;2311615;56;20973;-72
2023/03/08 05:20:17;;;;;;;8.05;4.75;;;9.20;43.40;;;;;;2439803;54;20913;-71
2023/03/08 05:22:44;;;;;;;12.57;6.35;;;9.30;43.50;;;;;;2551377;54;21038;-72
2023/03/08 05:25:23;;;;;;;10.50;5.93;;;9.30;43.40;;;;;;2311673;55;21743;-67
2023/03/08 05:27:49;;;;;;;8.60;4.90;;;9.30;43.40;;;;;;2288850;55;20975;-74
2023/03/08 05:30:16;;;;;;;10.45;5.87;;;9.30;43.40;;;;;;2311724;56;21037;-69
2023/03/08 05:32:42;;;;;;;8.57;4.78;;;9.40;43.40;;;;;;2312556;55;21362;-74
2023/03/08 05:35:08;;;;;;;9.63;5.25;;;9.40;43.40;;;;;;2312694;55;20981;-71
2023/03/08 05:37:34;;;;;;;8.38;4.87;;;9.40;43.40;;;;;;2319423;54;20914;-77
2023/03/08 05:40:01;;;;;;;10.90;5.60;;;9.40;43.40;;;;;;2306676;55;20998;-73
2023/03/08 05:42:30;;;;;;;9.45;5.15;;;9.40;43.40;;;;;;2293439;55;21542;-73
2023/03/08 05:44:56;;;;;;;9.93;5.43;;;9.50;43.50;;;;;;2311276;55;21033;-72
2023/03/08 05:47:24;;;;;;;8.52;4.95;;;9.50;43.40;;;;;;2311756;55;21430;-71
2023/03/08 05:49:54;;;;;;;10.27;5.78;;;9.50;43.40;;;;;;2311912;56;20940;-70
2023/03/08 05:52:57;;;;;;;10.07;5.28;;;9.50;43.40;;;;;;2311285;55;21029;-73
2023/03/08 05:55:23;;;;;;;8.25;4.60;;;9.60;43.60;;;;;;2311816;56;20922;-74
2023/03/08 05:57:49;;;;;;;8.75;4.62;;;9.60;43.50;;;;;;2311317;54;20961;-70
2023/03/08 06:00:16;;;;;;;11.82;6.00;;;9.60;43.50;;;;;;2311353;55;20972;-72
2023/03/08 06:02:42;;;;;;;8.93;5.03;;;9.60;43.60;;;;;;2311814;55;21024;-74
2023/03/08 06:05:11;;;;;;;8.77;5.05;;;9.70;43.60;;;;;;2545958;54;21473;-70
2023/03/08 06:07:38;;;;;;;9.43;5.22;;;9.60;43.50;;;;;;2311730;55;20929;-72
2023/03/08 06:10:05;;;;;;;9.73;5.12;;;9.70;43.70;;;;;;2311366;56;21785;-72
2023/03/08 06:12:31;;;;;;;8.27;5.03;;;9.70;43.60;;;;;;2305670;55;21028;-75
2023/03/08 06:14:57;;;;;;;7.93;4.47;;;9.70;43.70;;;;;;2311306;56;21430;-74
2023/03/08 06:17:25;;;;;;;9.52;5.50;;;9.70;43.70;;;;;;2304551;55;21027;-71
2023/03/08 06:19:52;;;;;;;7.80;4.57;;;9.70;43.70;;;;;;2440090;54;21848;-76
2023/03/08 06:22:18;;;;;;;7.60;4.60;;;9.70;43.70;;;;;;2311678;55;20905;-73
2023/03/08 06:24:48;;;;;;;9.20;4.53;;;9.70;43.70;;;;;;2311653;56;20914;-72
2023/03/08 06:27:16;;;;;;;8.63;4.50;;;9.80;43.80;;;;;;2311682;55;21000;-73
2023/03/08 06:29:42;;;;;;;7.93;4.47;;;9.80;43.70;;;;;;2311865;56;20953;-69
2023/03/08 06:32:08;;;;;;;9.25;4.70;;;9.80;43.70;;;;;;2311296;56;20953;-71
2023/03/08 06:34:34;;;;;;;8.13;4.05;;;9.80;43.80;;;;;;2311727;56;21293;-70
2023/03/08 06:37:01;;;;;;;8.63;4.53;;;9.80;43.80;;;;;;2311327;55;20906;-74
2023/03/08 06:39:29;;;;;;;9.32;4.32;;;9.80;43.90;;;;;;2312073;55;20925;-72
2023/03/08 06:42:04;;;;;;;7.87;4.20;;;9.80;44.10;;;;;;2311763;55;21794;-72
2023/03/08 06:44:31;;;;;;;7.82;3.53;;;9.80;44.30;;;;;;2311212;56;20965;-70
2023/03/08 06:46:57;;;;;;;7.57;4.07;;;9.80;44.30;;;;;;2311289;56;20961;-73
2023/03/08 06:49:23;;;;;;;8.13;4.07;;;9.80;44.30;;;;;;2510411;54;20949;-70
2023/03/08 06:51:49;;;;;;;8.23;4.28;;;9.90;44.50;;;;;;2311448;54;20997;-68
2023/03/08 06:54:16;;;;;;;6.93;3.78;;;9.80;44.50;;;;;;2311730;56;21016;-72
2023/03/08 06:56:43;;;;;;;7.72;3.80;;;9.90;44.60;;;;;;2522986;54;20949;-70
2023/03/08 06:59:11;;;;;;;8.18;4.28;;;9.80;44.60;;;;;;2289124;55;21001;-70
2023/03/08 07:01:37;;;;;;;8.18;3.80;;;9.80;44.60;;;;;;2550836;54;21954;-70
2023/03/08 07:04:04;;;;;;;6.28;3.58;;;9.80;44.70;;;;;;2310535;56;21785;-72
2023/03/08 07:06:30;;;;;;;8.57;4.32;;;9.80;44.70;;;;;;2310400;55;20946;-70
2023/03/08 07:08:56;;;;;;;7.15;3.72;;;9.80;44.70;;;;;;2311429;56;20916;-70
2023/03/08 07:11:22;;;;;;;7.10;4.00;;;9.80;44.70;;;;;;2312202;55;20965;-73
2023/03/08 07:13:49;;;;;;;6.45;3.50;;;9.80;44.70;;;;;;2324155;54;21704;-72
2023/03/08 07:16:16;;;;;;;6.62;3.50;;;9.90;44.90;;;;;;2550663;54;20985;-72
2023/03/08 07:18:42;;;;;;;6.30;3.28;;;9.90;45.00;;;;;;2311105;55;20925;-69
2023/03/08 07:21:09;;;;;;;5.70;3.08;;;9.80;45.00;;;;;;2310850;56;21076;-71
2023/03/08 07:23:36;;;;;;;6.85;3.15;;;9.90;45.10;;;;;;2311428;56;20920;-73
2023/03/08 07:26:05;;;;;;;6.62;3.45;;;9.90;45.20;;;;;;2311221;56;21430;-72
2023/03/08 07:28:31;;;;;;;5.37;2.80;;;10.00;44.50;;;;;;2311519;56;21037;-72
2023/03/08 07:30:57;;;;;;;7.65;3.37;;;10.00;44.40;;;;;;2311836;56;20938;-70
2023/03/08 07:33:24;;;;;;;5.22;2.75;;;10.00;44.50;;;;;;2311802;56;20977;-72
2023/03/08 07:35:50;;;;;;;8.30;3.65;;;10.00;44.50;;;;;;2311389;55;20945;-67
2023/03/08 07:38:16;;;;;;;7.22;3.62;;;10.00;44.60;;;;;;2298412;55;21018;-75
2023/03/08 07:44:42;;;;;;;6.28;3.12;;;10.10;44.80;;;;;;2386644;54;20953;-72
2023/03/08 07:47:08;;;;;;;6.53;3.12;;;10.10;44.80;;;;;;2292255;55;21619;-73
2023/03/08 07:49:34;;;;;;;5.82;3.05;;;10.10;44.60;;;;;;2306537;55;21812;-75
2023/03/08 07:52:01;;;;;;;5.80;2.90;;;10.20;44.80;;;;;;2310508;56;21048;-70
2023/03/08 07:54:27;;;;;;;4.55;2.70;;;10.20;44.90;;;;;;2315167;54;20965;-70
2023/03/08 07:56:53;;;;;;;7.43;2.87;;;10.20;45.00;;;;;;2346134;54;21334;-69
2023/03/08 07:59:20;;;;;;;5.37;2.55;;;10.30;45.10;;;;;;2379010;54;21028;-70
2023/03/08 08:01:46;;;;;;;5.35;2.85;;;10.30;45.20;;;;;;2380071;54;20973;-72
2023/03/08 08:04:12;;;;;;;5.80;3.10;;;10.40;45.30;;;;;;2513406;54;21405;-72
2023/03/08 08:06:39;;;;;;;5.22;2.87;;;10.40;45.40;;;;;;2312035;56;21683;-72
2023/03/08 08:09:06;;;;;;;4.87;2.60;;;10.50;45.50;;;;;;2452910;54;20954;-71
2023/03/08 08:11:33;;;;;;;5.95;2.50;;;10.50;45.50;;;;;;2311775;55;20997;-74
2023/03/08 08:14:00;;;;;;;6.20;3.00;;;10.50;45.50;;;;;;2311843;56;21703;-72
2023/03/08 08:16:26;;;;;;;7.32;3.30;;;10.60;45.50;;;;;;2358970;54;21026;-72
2023/03/08 08:18:53;;;;;;;6.40;3.12;;;10.60;45.50;;;;;;2297672;55;20918;-72
2023/03/08 08:21:20;;;;;;;5.68;3.12;;;10.60;45.50;;;;;;2311128;55;20992;-72
2023/03/08 08:23:46;;;;;;;7.12;3.55;;;10.70;45.60;;;;;;2551050;54;20957;-70
2023/03/08 08:26:19;;;;;;;7.30;3.45;;;10.70;45.60;;;;;;2311748;56;20981;-71
2023/03/08 08:28:47;;;;;;;5.32;3.05;;;10.80;45.70;;;;;;2312087;55;20945;-72
2023/03/08 08:31:15;;;;;;;7.55;3.50;;;10.80;45.60;;;;;;2299465;55;21373;-71
2023/03/08 08:33:42;;;;;;;6.35;3.62;;;10.80;45.70;;;;;;2301222;55;20917;-70
2023/03/08 08:36:13;;;;;;;9.35;4.05;;;10.90;45.70;;;;;;2311212;55;21036;-73
2023/03/08 08:38:39;;;;;;;10.23;5.18;;;10.90;45.70;;;;;;2339725;54;21418;-72
2023/03/08 08:41:06;;;;;;;7.03;3.90;;;10.90;45.70;;;;;;2348695;54;21001;-73
2023/03/08 08:43:33;;;;;;;7.57;3.62;;;10.90;45.70;;;;;;2289262;55;21415;-71
2023/03/08 08:46:01;;;;;;;7.47;3.50;;;11.00;45.80;;;;;;2311502;54;20978;-73
2023/03/08 08:48:28;;;;;;;6.32;3.75;;;11.00;45.80;;;;;;2311929;56;20981;-71
2023/03/08 08:50:57;;;;;;;6.25;3.33;;;11.00;45.80;;;;;;2346098;54;20950;-70
2023/03/08 08:53:23;;;;;;;8.07;4.10;;;11.10;45.90;;;;;;2312406;55;20949;-73
2023/03/08 08:55:49;;;;;;;8.63;4.10;;;11.10;45.90;;;;;;2367025;54;20956;-72
2023/03/08 08:58:16;;;;;;;8.20;4.18;;;11.10;45.90;;;;;;2429767;54;20961;-73
2023/03/08 09:00:42;;;;;;;9.43;4.72;;;11.20;46.10;;;;;;2311878;56;20924;-73
2023/03/08 09:03:09;;;;;;;8.27;4.47;;;11.30;46.10;;;;;;2369017;54;20918;-72
2023/03/08 09:05:38;;;;;;;9.63;4.28;;;11.30;46.20;;;;;;2310970;56;21235;-72
2023/03/08 09:08:04;;;;;;;9.85;4.90;;;11.30;46.20;;;;;;2309937;56;21585;-69
2023/03/08 09:10:36;;;;;;;8.98;4.78;;;11.40;46.30;;;;;;2311563;56;20918;-70
2023/03/08 09:13:03;;;;;;;6.28;3.60;;;11.50;46.50;;;;;;2310556;56;21285;-71
2023/03/08 09:15:29;;;;;;;6.55;3.62;;;11.50;46.40;;;;;;2311662;55;21004;-70
2023/03/08 09:17:56;;;;;;;4.43;2.62;;;11.60;46.60;;;;;;2318061;54;20961;-72
2023/03/08 09:20:22;;;;;;;5.85;2.97;;;11.60;46.60;;;;;;2333270;54;20970;-73
2023/03/08 09:22:49;;;;;;;4.80;2.15;;;11.70;46.70;;;;;;2311369;56;21308;-74
2023/03/08 09:25:18;;;;;;;4.97;2.30;;;11.80;46.80;;;;;;2311121;55;20943;-71
2023/03/08 09:27:44;;;;;;;4.53;2.20;;;11.80;46.80;;;;;;2311539;56;20933;-73
2023/03/08 09:30:12;;;;;;;6.10;2.20;;;11.90;46.90;;;;;;2311186;56;21044;-73
2023/03/08 09:32:38;;;;;;;3.90;1.85;;;11.90;46.90;;;;;;2311164;55;21020;-71
2023/03/08 09:35:07;;;;;;;4.25;1.77;;;11.90;46.80;;;;;;2311326;56;20970;-72
2023/03/08 09:37:33;;;;;;;3.53;1.73;;;12.00;46.90;;;;;;2289348;55;21095;-72
2023/03/08 09:39:59;;;;;;;5.87;2.35;;;12.00;46.80;;;;;;2317594;54;20905;-73
2023/03/08 09:42:28;;;;;;;4.20;2.03;;;12.10;47.00;;;;;;2471010;54;20924;-70
2023/03/08 09:45:39;;;;;;;4.65;2.42;;;12.10;47.00;;;;;;2310957;55;20965;-70
2023/03/08 09:48:23;;;;;;;3.65;1.77;;;12.20;47.40;;;;;;2291809;55;21409;-71
2023/03/08 09:50:51;;;;;;;5.20;2.28;;;12.20;47.10;;;;;;2383139;54;20929;-70
2023/03/08 09:53:40;;;;;;;6.72;2.65;;;12.30;47.30;;;;;;2311065;56;20953;-71
2023/03/08 09:56:28;;;;;;;3.92;2.17;;;12.30;47.40;;;;;;2313555;55;20966;-73
2023/03/08 09:59:03;;;;;;;3.70;1.67;;;12.40;47.50;;;;;;2326596;54;21462;-73
2023/03/08 10:01:58;;;;;;;4.65;1.80;;;12.40;47.60;;;;;;2341882;54;1282777;-70
2023/03/08 10:04:34;;;;;;;3.20;1.40;;;12.50;48.00;;;;;;2398623;54;21832;-70
2023/03/08 10:07:30;;;;;;;4.20;1.48;;;12.50;47.90;;;;;;2316422;54;21460;-70
2023/03/08 10:10:59;;;;;;;2.70;1.27;;;12.60;48.10;;;;;;2549632;54;21269;-71
2023/03/08 10:13:30;;;;;;;4.37;1.30;;;12.70;48.30;;;;;;2311298;56;21025;-70
2023/03/08 10:16:43;;;;;;;3.25;1.10;;;12.70;48.00;;;;;;2327784;54;21304;-71
2023/03/08 10:19:19;;;;;;;2.35;1.00;;;12.80;48.10;;;;;;2345794;54;20970;-71
2023/03/08 10:21:45;;;;;;;2.55;1.20;;;12.90;48.30;;;;;;2360607;54;20921;-71
2023/03/08 10:24:15;;;;;;;2.83;1.25;;;12.90;48.20;;;;;;2310771;55;20965;-72
2023/03/08 10:26:42;;;;;;;2.95;1.20;;;13.00;48.40;;;;;;2311039;55;21644;-72
2023/03/08 10:29:11;;;;;;;3.78;1.30;;;13.10;49.10;;;;;;2358083;54;20969;-72
2023/03/08 10:31:37;;;;;;;3.42;1.30;;;13.20;48.60;;;;;;2310860;55;21446;-71
2023/03/08 10:34:14;;;;;;;2.80;1.20;;;13.20;48.70;;;;;;2492987;54;21553;-74
2023/03/08 10:37:14;;;;;;;3.20;1.60;;;13.30;48.90;;;;;;2279936;56;20928;-70
2023/03/08 10:39:53;;;;;;;2.87;1.27;;;13.40;49.10;;;;;;2280311;55;21102;-69
2023/03/08 10:42:22;;;;;;;2.00;0.80;;;13.50;48.90;;;;;;2300373;56;21222;-71
2023/03/08 10:45:30;;;;;;;2.62;1.20;;;13.60;48.80;;;;;;2314447;54;20901;-72
2023/03/08 10:48:01;;;;;;;3.00;1.30;;;13.70;49.20;;;;;;2310739;55;20965;-73
2023/03/08 10:50:31;;;;;;;2.35;1.00;;;13.80;49.00;;;;;;2311418;55;20913;-70
2023/03/08 10:53:15;;;;;;;3.03;1.05;;;13.90;49.00;;;;;;2328993;54;20969;-72
2023/03/08 10:55:46;;;;;;;2.25;1.12;;;13.90;49.20;;;;;;2513344;55;21510;-70
2023/03/08 10:58:37;;;;;;;2.40;1.05;;;14.00;49.20;;;;;;2254419;56;21251;-72
2023/03/08 11:01:28;;;;;;;2.67;1.10;;;14.10;49.50;;;;;;2302816;55;22052;-73
2023/03/08 11:04:05;;;;;;;4.85;1.00;;;14.20;49.50;;;;;;2395008;54;20925;-72
2023/03/08 11:06:34;;;;;;;2.20;0.98;;;14.30;49.50;;;;;;2311315;55;20948;-73
2023/03/08 11:09:02;;;;;;;3.20;1.10;;;14.40;49.50;;;;;;2311317;56;21501;-72
2023/03/08 11:11:38;;;;;;;3.50;1.30;;;14.50;49.60;;;;;;2311376;56;21371;-74
2023/03/08 11:14:04;;;;;;;2.67;1.00;;;14.60;49.60;;;;;;2308256;54;21042;-72
2023/03/08 11:16:48;;;;;;;2.28;1.10;;;14.70;49.60;;;;;;2302900;55;21009;-72
2023/03/08 11:20:50;;;;;;;2.03;0.93;;;14.80;49.80;;;;;;2289837;55;21322;-70
2023/03/08 11:27:04;;;;;;;2.33;1.05;;;15.00;49.80;;;;;;2322843;54;21857;-73
2023/03/08 11:34:41;;;;;;;2.28;0.80;;;15.10;49.70;;;;;;2311978;55;21118;-73
2023/03/08 11:37:29;;;;;;;2.00;0.70;;;15.40;49.20;;;;;;2310599;55;21320;-71
2023/03/08 11:40:13;;;;;;;1.27;0.62;;;15.40;48.90;;;;;;2311480;55;20917;-70
2023/03/08 11:44:35;;;;;;;2.67;0.80;;;15.40;48.90;;;;;;2311828;55;21461;-73
2023/03/08 11:49:00;;;;;;;2.65;0.90;;;15.50;49.30;;;;;;2310089;55;21549;-71
2023/03/08 11:55:04;;;;;;;2.90;1.05;;;15.50;49.30;;;;;;2319417;54;20937;-72
2023/03/08 11:57:33;;;;;;;1.80;0.70;;;15.60;49.10;;;;;;2311706;55;20941;-74
2023/03/08 12:00:27;;;;;;;2.62;0.80;;;15.60;49.00;;;;;;2435403;54;20917;-73
2023/03/08 12:02:53;;;;;;;2.45;0.90;;;15.60;49.10;;;;;;2311360;56;20941;-73
2023/03/08 12:05:28;;;;;;;2.00;0.65;;;15.70;49.30;;;;;;2454700;54;20949;-71
2023/03/08 12:08:02;;;;;;;4.78;0.82;;;15.70;49.40;;;;;;2311420;56;21296;-71
2023/03/08 12:10:40;;;;;;;1.62;0.70;;;15.70;49.50;;;;;;2476269;54;20933;-70
2023/03/08 12:13:31;;;;;;;1.98;0.65;;;15.70;49.50;;;;;;2310744;55;21378;-72
2023/03/08 12:18:36;;;;;;;3.28;0.77;;;15.70;49.70;;;;;;2356451;54;20914;-73
2023/03/08 12:21:14;;;;;;;;;;;15.80;49.70;;;;;;2314566;56;20937;-73
2023/03/08 12:24:12;;;;;;;2.00;0.68;;;15.90;49.60;;;;;;2311675;55;20064;-74
2023/03/08 12:26:44;;;;;;;3.83;0.60;;;15.80;49.50;;;;;;2311496;55;21465;-71
2023/03/08 12:29:17;;;;;;;1.37;0.50;;;15.90;49.60;;;;;;2480921;54;21201;-74
2023/03/08 12:31:44;;;;;;;1.30;0.50;;;15.90;49.70;;;;;;2311664;55;20968;-72
2023/03/08 12:34:13;;;;;;;2.42;0.80;;;15.90;49.70;;;;;;2310873;56;20932;-74
2023/03/08 12:36:41;;;;;;;1.08;0.50;;;15.90;49.90;;;;;;2338586;54;21272;-71
2023/03/08 12:39:22;;;;;;;1.30;0.60;;;15.90;49.80;;;;;;2310902;55;21323;-71
2023/03/08 12:41:58;;;;;;;1.23;0.40;;;16.00;50.00;;;;;;2357372;54;21357;-71
2023/03/08 12:44:26;;;;;;;1.75;0.70;;;16.00;50.00;;;;;;2311970;56;20950;-72
2023/03/08 12:47:26;;;;;;;0.90;0.47;;;16.00;50.00;;;;;;2311843;56;21777;-71
2023/03/08 12:49:55;;;;;;;2.72;0.50;;;16.10;50.10;;;;;;2504585;54;21346;-72
2023/03/08 12:52:29;;;;;;;1.48;0.43;;;16.00;49.90;;;;;;2311794;55;20921;-73
2023/03/08 12:55:10;;;;;;;0.73;0.32;;;16.10;50.10;;;;;;2401163;54;20922;-74
2023/03/08 12:57:45;;;;;;;1.35;0.43;;;16.20;50.10;;;;;;2333434;54;20957;-71
2023/03/08 13:00:34;;;;;;;1.05;0.45;;;16.20;50.10;;;;;;2427376;54;21462;-74
2023/03/08 13:03:10;;;;;;;1.10;0.50;;;16.30;50.20;;;;;;2491199;54;21621;-72
2023/03/08 13:05:37;;;;;;;0.80;0.35;;;16.30;50.00;;;;;;2457181;54;20930;-72
2023/03/08 13:08:58;;;;;;;0.88;0.40;;;16.30;50.00;;;;;;2316780;54;21093;-72
2023/03/08 13:11:25;;;;;;;1.52;0.45;;;16.40;50.20;;;;;;2313807;55;21056;-73
2023/03/08 13:13:57;;;;;;;0.45;0.20;;;16.40;50.00;;;;;;2364059;54;21048;-72
2023/03/08 13:16:38;;;;;;;0.80;0.40;;;16.50;50.00;;;;;;2290276;55;21032;-70
2023/03/08 13:19:25;;;;;;;1.20;0.40;;;16.50;50.10;;;;;;2311089;55;20937;-74
2023/03/08 13:22:14;;;;;;;0.62;0.30;;;16.50;50.00;;;;;;2311631;56;20934;-72
2023/03/08 13:24:49;;;;;;;0.80;0.30;;;16.60;50.00;;;;;;2311423;56;21028;-73
2023/03/08 13:27:37;;;;;;;0.80;0.40;;;16.60;50.00;;;;;;2310874;55;21388;-71
2023/03/08 13:30:23;;;;;;;0.68;0.32;;;16.60;50.00;;;;;;2310826;55;20933;-72
2023/03/08 13:32:49;;;;;;;0.45;0.28;;;16.60;50.00;;;;;;2311563;56;20894;-74
2023/03/08 13:35:16;;;;;;;1.15;0.40;;;16.70;50.00;;;;;;2311698;55;20965;-73